createdAt,value
2018-12-19T00:05:03.511Z,8.57
2018-12-19T00:10:12.228Z,9.30
2018-12-19T00:15:20.026Z,8.85
2018-12-19T00:20:27.404Z,8.07
2018-12-19T00:25:35.171Z,8.00
2018-12-19T00:30:44.798Z,8.47
2018-12-19T00:35:53.535Z,8.03
2018-12-19T00:41:04.895Z,7.93
2018-12-19T00:46:15.496Z,8.00
2018-12-19T00:51:25.664Z,7.60
2018-12-19T00:56:36.672Z,7.27
2018-12-19T01:01:46.249Z,6.50
2018-12-19T01:06:55.551Z,6.53
2018-12-19T01:12:03.889Z,6.70
2018-12-19T01:17:09.848Z,7.27
2018-12-19T01:22:17.614Z,7.23
2018-12-19T01:27:26.746Z,6.67
2018-12-19T01:32:33.306Z,6.03
2018-12-19T01:37:43.205Z,5.87
2018-12-19T01:42:52.601Z,6.00
2018-12-19T01:48:01.354Z,5.27
2018-12-19T01:53:09.644Z,4.43
2018-12-19T01:58:20.137Z,4.87
2018-12-19T02:03:28.687Z,4.83
2018-12-19T02:08:36.299Z,4.17
2018-12-19T02:13:45.187Z,5.07
2018-12-19T02:18:54.079Z,4.27
2018-12-19T02:24:01.982Z,3.83
2018-12-19T02:29:09.851Z,3.67
2018-12-19T02:34:20.298Z,4.00
2018-12-19T02:39:35.940Z,3.77
2018-12-19T02:44:38.764Z,3.27
2018-12-19T02:49:47.509Z,3.70
2018-12-19T02:54:56.547Z,3.20
2018-12-19T03:00:05.761Z,3.80
2018-12-19T03:05:14.162Z,3.50
2018-12-19T03:10:23.681Z,3.57
2018-12-19T03:15:32.359Z,3.50
2018-12-19T03:20:41.141Z,3.20
2018-12-19T03:25:49.995Z,3.20
2018-12-19T03:31:01.064Z,3.00
2018-12-19T03:36:08.689Z,3.20
2018-12-19T03:41:17.877Z,2.97
2018-12-19T03:46:23.657Z,3.17
2018-12-19T03:51:32.743Z,2.90
2018-12-19T03:56:43.296Z,2.83
2018-12-19T04:01:52.183Z,3.40
2018-12-19T04:06:59.344Z,3.20
2018-12-19T04:12:10.869Z,3.10
2018-12-19T04:17:18.674Z,2.80
2018-12-19T04:22:30.055Z,3.20
2018-12-19T04:27:37.860Z,3.03
2018-12-19T04:32:46.409Z,3.30
2018-12-19T04:37:53.625Z,3.27
2018-12-19T04:43:02.557Z,4.00
2018-12-19T04:48:13.280Z,3.10
2018-12-19T04:53:23.981Z,3.53
2018-12-19T04:58:34.852Z,4.00
2018-12-19T05:03:42.770Z,4.28
2018-12-19T05:08:52.620Z,4.60
2018-12-19T05:15:03.945Z,4.33
2018-12-19T05:20:14.368Z,4.27
2018-12-19T05:25:23.372Z,4.65
2018-12-19T05:30:33.256Z,5.40
2018-12-19T05:35:43.708Z,5.47
2018-12-19T05:40:52.741Z,6.23
2018-12-19T05:46:01.477Z,5.90
2018-12-19T05:51:08.396Z,6.37
2018-12-19T05:56:21.535Z,6.28
2018-12-19T06:01:30.246Z,5.87
2018-12-19T06:06:40.141Z,6.90
2018-12-19T06:11:53.364Z,6.23
2018-12-19T06:17:07.457Z,7.30
2018-12-19T06:22:14.728Z,7.03
2018-12-19T06:27:22.019Z,7.72
2018-12-19T06:32:30.818Z,7.37
2018-12-19T06:37:37.254Z,7.73
2018-12-19T06:42:48.652Z,8.23
2018-12-19T06:47:59.412Z,8.53
2018-12-19T06:53:06.733Z,8.97
2018-12-19T06:58:16.800Z,9.53
2018-12-19T07:03:25.407Z,9.77
2018-12-19T07:08:34.030Z,10.57
2018-12-19T07:13:43.588Z,10.95
2018-12-19T07:18:51.777Z,10.00
2018-12-19T07:23:59.553Z,9.97
2018-12-19T07:29:06.120Z,10.93
2018-12-19T07:34:14.876Z,10.90
2018-12-19T07:39:22.431Z,11.20
2018-12-19T07:44:32.089Z,11.80
2018-12-19T07:49:40.010Z,12.03
2018-12-19T07:54:50.855Z,13.80
2018-12-19T07:59:59.174Z,12.97
2018-12-19T08:05:09.371Z,12.77
2018-12-19T08:10:17.866Z,13.67
2018-12-19T08:15:25.844Z,13.80
2018-12-19T08:20:56.036Z,14.37
2018-12-19T08:26:02.593Z,13.43
2018-12-19T08:31:11.312Z,14.20
2018-12-19T08:36:21.813Z,14.60
2018-12-19T08:41:29.675Z,14.23
2018-12-19T08:46:37.325Z,12.80
2018-12-19T08:51:45.713Z,12.50
2018-12-19T08:56:53.106Z,12.83
2018-12-19T09:02:01.855Z,12.87
2018-12-19T09:07:10.245Z,12.10
2018-12-19T09:12:22.587Z,11.93
2018-12-19T09:17:32.706Z,11.87
2018-12-19T09:22:42.286Z,11.00
2018-12-19T09:27:52.004Z,10.90
2018-12-19T09:33:01.351Z,10.03
2018-12-19T09:38:10.949Z,10.13
2018-12-19T09:43:19.648Z,10.00
2018-12-19T09:48:32.461Z,8.37
2018-12-19T09:53:42.039Z,8.33
2018-12-19T09:58:50.803Z,7.77
2018-12-19T10:03:59.946Z,7.90
2018-12-19T10:09:14.804Z,7.00
2018-12-19T10:14:24.329Z,7.03
2018-12-19T10:19:37.886Z,7.20
2018-12-19T10:25:04.320Z,6.43
2018-12-19T10:30:15.045Z,7.40
2018-12-19T10:35:52.125Z,6.63
2018-12-19T10:41:02.111Z,5.93
2018-12-19T10:46:10.022Z,6.50
2018-12-19T10:51:19.752Z,6.40
2018-12-19T10:56:31.167Z,6.50
2018-12-19T11:01:38.920Z,5.33
2018-12-19T11:06:46.974Z,5.50
2018-12-19T11:12:04.548Z,5.03
2018-12-19T11:17:27.563Z,4.07
2018-12-19T11:22:33.649Z,3.73
2018-12-19T11:27:42.086Z,3.70
2018-12-19T11:32:58.294Z,3.07
2018-12-19T11:38:08.580Z,3.20
2018-12-19T11:43:18.776Z,3.20
2018-12-19T11:48:28.709Z,3.27
2018-12-19T11:53:37.544Z,3.20
2018-12-19T11:58:46.381Z,3.53
2018-12-19T12:03:53.736Z,2.97
2018-12-19T12:08:59.119Z,2.83
2018-12-19T12:14:07.969Z,2.80
2018-12-19T12:19:18.501Z,2.67
2018-12-19T12:24:28.224Z,2.42
2018-12-19T12:29:41.662Z,2.37
2018-12-19T12:34:52.015Z,2.40
2018-12-19T12:39:59.112Z,2.13
2018-12-19T12:45:13.349Z,3.00
2018-12-19T12:50:23.007Z,1.95
2018-12-19T12:55:36.048Z,2.27
2018-12-19T13:00:45.159Z,2.30
2018-12-19T13:05:54.424Z,2.40
2018-12-19T13:11:01.587Z,2.03
2018-12-19T13:16:09.471Z,2.03
2018-12-19T13:21:17.910Z,2.10
2018-12-19T13:26:27.573Z,1.57
2018-12-19T13:31:35.494Z,1.97
2018-12-19T13:36:44.209Z,2.03
2018-12-19T13:41:52.436Z,2.17
2018-12-19T13:47:02.143Z,2.13
2018-12-19T13:52:10.192Z,2.20
2018-12-19T13:57:17.659Z,2.20
2018-12-19T14:02:26.395Z,2.10
2018-12-19T14:07:35.443Z,2.50
2018-12-19T14:12:42.152Z,2.30
2018-12-19T14:17:49.935Z,2.50
2018-12-19T14:22:55.764Z,2.10
2018-12-19T14:28:08.354Z,2.20
2018-12-19T14:33:19.026Z,2.02
2018-12-19T14:38:27.210Z,2.02
2018-12-19T14:43:34.385Z,2.33
2018-12-19T14:48:43.243Z,2.17
2018-12-19T14:53:52.896Z,2.33
2018-12-19T14:59:03.182Z,2.40
2018-12-19T15:04:12.918Z,2.00
2018-12-19T15:09:22.483Z,2.12
2018-12-19T15:14:30.081Z,2.30
2018-12-19T15:19:36.824Z,3.73
2018-12-19T15:24:47.393Z,2.25
2018-12-19T15:29:54.532Z,2.83
2018-12-19T15:35:02.447Z,1.87
2018-12-19T15:40:13.369Z,2.93
2018-12-19T15:45:22.531Z,2.58
2018-12-19T15:50:31.915Z,2.37
2018-12-19T15:55:38.923Z,2.77
2018-12-19T16:00:48.263Z,2.60
2018-12-19T16:05:55.472Z,2.07
2018-12-19T16:11:02.209Z,2.27
2018-12-19T16:16:11.715Z,2.80
2018-12-19T16:21:18.087Z,3.10
2018-12-19T16:26:26.691Z,2.58
2018-12-19T16:31:35.240Z,2.90
2018-12-19T16:36:45.090Z,2.80
2018-12-19T16:41:52.793Z,2.90
2018-12-19T16:47:02.403Z,2.47
2018-12-19T16:52:10.506Z,2.73
2018-12-19T16:57:18.321Z,3.42
2018-12-19T17:02:26.430Z,3.80
2018-12-19T17:07:34.630Z,2.80
2018-12-19T17:12:40.075Z,3.07
2018-12-19T17:17:47.553Z,3.70
2018-12-19T17:22:56.292Z,3.50
2018-12-19T17:28:02.940Z,3.07
2018-12-19T17:33:12.639Z,3.47
2018-12-19T17:38:22.181Z,3.43
2018-12-19T17:43:35.307Z,2.60
2018-12-19T17:48:42.430Z,4.07
2018-12-19T17:53:54.034Z,3.10
2018-12-19T17:58:59.235Z,3.63
2018-12-19T18:04:11.359Z,3.20
2018-12-19T18:09:22.827Z,3.70
2018-12-19T18:14:31.812Z,3.07
2018-12-19T18:19:40.195Z,3.43
2018-12-19T18:24:49.986Z,4.50
2018-12-19T18:29:57.788Z,4.43
2018-12-19T18:35:06.800Z,4.90
2018-12-19T18:40:14.172Z,3.80
2018-12-19T18:45:24.275Z,3.58
2018-12-19T18:50:32.517Z,4.17
2018-12-19T18:55:40.575Z,3.63
2018-12-19T19:00:49.335Z,4.53
2018-12-19T19:05:58.995Z,3.90
2018-12-19T19:11:07.262Z,4.62
2018-12-19T19:16:16.680Z,4.05
2018-12-19T19:21:24.906Z,4.47
2018-12-19T19:26:33.980Z,4.40
2018-12-19T19:31:40.406Z,3.93
2018-12-19T19:36:54.976Z,4.43
2018-12-19T19:42:03.304Z,4.80
2018-12-19T19:47:11.491Z,5.40
2018-12-19T19:52:20.286Z,4.67
2018-12-19T19:57:29.820Z,5.50
2018-12-19T20:02:35.782Z,4.60
2018-12-19T20:07:42.976Z,5.53
2018-12-19T20:12:50.345Z,5.10
2018-12-19T20:17:58.132Z,5.83
2018-12-19T20:23:06.057Z,5.70
2018-12-19T20:28:12.691Z,5.22
2018-12-19T20:33:20.276Z,5.30
2018-12-19T20:38:28.158Z,5.70
2018-12-19T20:43:39.947Z,5.53
2018-12-19T20:48:49.263Z,5.80
2018-12-19T20:53:58.020Z,5.03
2018-12-19T20:59:07.530Z,4.93
2018-12-19T21:04:19.204Z,5.42
2018-12-19T21:09:27.413Z,4.67
2018-12-19T21:14:35.205Z,4.80
2018-12-19T21:19:43.163Z,5.10
2018-12-19T21:24:55.807Z,5.07
2018-12-19T21:30:05.861Z,5.53
2018-12-19T21:35:15.552Z,5.77
2018-12-19T21:40:23.425Z,5.60
2018-12-19T21:45:33.999Z,5.20
2018-12-19T21:51:04.958Z,7.13
2018-12-19T21:56:15.350Z,5.37
2018-12-19T22:01:22.774Z,5.35
2018-12-19T22:06:29.893Z,5.43
2018-12-19T22:11:37.056Z,5.87
2018-12-19T22:17:02.142Z,6.00
2018-12-19T22:22:10.407Z,5.70
2018-12-19T22:27:16.775Z,5.97
2018-12-19T22:32:26.280Z,5.70
2018-12-19T22:37:36.353Z,5.80
2018-12-19T22:42:48.450Z,5.33
2018-12-19T22:47:58.895Z,5.73
2018-12-19T22:53:05.976Z,5.83
2018-12-19T22:58:13.310Z,6.00
2018-12-19T23:03:22.963Z,5.50
2018-12-19T23:08:30.219Z,5.97
2018-12-19T23:13:37.245Z,6.50
2018-12-19T23:18:47.365Z,6.27
2018-12-19T23:24:15.805Z,6.17
2018-12-19T23:29:25.362Z,6.37
2018-12-19T23:34:34.256Z,6.13
2018-12-19T23:39:41.154Z,5.93
2018-12-19T23:44:51.680Z,6.53
2018-12-19T23:49:59.867Z,5.87
2018-12-19T23:55:07.077Z,6.60
